createdAt,value
2023-10-22T00:00:13.241Z,13.66
2023-10-22T00:01:34.862Z,13.08
2023-10-22T00:02:56.334Z,14.91
2023-10-22T00:04:24.781Z,12.27
2023-10-22T00:05:45.924Z,11.19
2023-10-22T00:07:07.687Z,12.27
2023-10-22T00:08:28.763Z,13.24
2023-10-22T00:09:56.298Z,12.29
2023-10-22T00:11:24.820Z,15.51
2023-10-22T00:12:46.178Z,12.91
2023-10-22T00:14:07.686Z,11.36
2023-10-22T00:15:35.654Z,12.08
2023-10-22T00:16:57.139Z,13.06
2023-10-22T00:18:18.636Z,10.96
2023-10-22T00:19:40.118Z,13.77
2023-10-22T00:21:12.932Z,12.98
2023-10-22T00:22:34.052Z,13.23
2023-10-22T00:23:55.443Z,12.84
2023-10-22T00:25:23.687Z,10.20
2023-10-22T00:26:52.006Z,10.77
2023-10-22T00:28:13.121Z,12.91
2023-10-22T00:29:34.761Z,10.98
2023-10-22T00:31:02.757Z,13.77
2023-10-22T00:32:30.726Z,12.74
2023-10-22T00:33:52.430Z,10.66
2023-10-22T00:35:13.957Z,12.05
2023-10-22T00:36:41.892Z,11.90
2023-10-22T00:38:02.889Z,13.92
2023-10-22T00:39:24.104Z,9.52
2023-10-22T00:40:45.543Z,12.59
2023-10-22T00:42:20.209Z,10.48
2023-10-22T00:43:41.624Z,12.57
2023-10-22T00:45:10.413Z,24.12
2023-10-22T00:46:38.730Z,25.35
2023-10-22T00:48:00.097Z,19.42
2023-10-22T00:49:21.541Z,14.21
2023-10-22T00:50:49.286Z,15.61
2023-10-22T00:52:10.789Z,14.21
2023-10-22T00:53:32.184Z,11.27
2023-10-22T00:55:06.943Z,11.09
2023-10-22T00:56:42.411Z,13.39
2023-10-22T00:58:11.647Z,11.99
2023-10-22T00:59:32.888Z,15.46
2023-10-22T01:01:00.886Z,11.11
2023-10-22T01:02:23.079Z,10.11
2023-10-22T01:03:44.186Z,11.06
2023-10-22T01:05:13.113Z,10.75
2023-10-22T01:06:42.784Z,14.92
2023-10-22T01:08:11.601Z,12.13
2023-10-22T01:09:33.080Z,11.07
2023-10-22T01:11:18.313Z,11.92
2023-10-22T01:12:46.170Z,11.65
2023-10-22T01:14:14.510Z,12.39
2023-10-22T01:15:35.914Z,11.39
2023-10-22T01:16:57.494Z,14.63
2023-10-22T01:18:25.062Z,9.79
2023-10-22T01:19:53.029Z,9.12
2023-10-22T01:21:15.564Z,9.36
2023-10-22T01:22:36.840Z,13.28
2023-10-22T01:23:58.031Z,13.17
2023-10-22T01:25:25.527Z,11.43
2023-10-22T01:26:47.058Z,12.28
2023-10-22T01:28:08.127Z,12.17
2023-10-22T01:29:42.910Z,12.91
2023-10-22T01:31:03.971Z,12.41
2023-10-22T01:32:25.400Z,11.36
2023-10-22T01:33:46.798Z,11.58
2023-10-22T01:35:14.848Z,12.89
2023-10-22T01:36:43.472Z,13.19
2023-10-22T01:38:04.866Z,10.74
2023-10-22T01:39:26.298Z,11.72
2023-10-22T01:40:47.607Z,10.76
2023-10-22T01:42:16.193Z,12.63
2023-10-22T01:43:37.302Z,9.51
2023-10-22T01:45:07.523Z,11.73
2023-10-22T01:46:28.762Z,11.83
2023-10-22T01:47:56.600Z,12.98
2023-10-22T01:49:24.239Z,12.75
2023-10-22T01:50:45.753Z,9.32
2023-10-22T01:52:06.949Z,8.92
2023-10-22T01:53:34.534Z,9.31
2023-10-22T01:55:09.457Z,13.54
2023-10-22T01:56:37.899Z,12.21
2023-10-22T01:58:05.713Z,9.24
2023-10-22T01:59:27.041Z,11.81
2023-10-22T02:01:10.966Z,9.14
2023-10-22T02:02:33.168Z,12.18
2023-10-22T02:04:01.670Z,10.16
2023-10-22T02:05:29.617Z,11.25
2023-10-22T02:06:57.294Z,14.18
2023-10-22T02:08:18.560Z,9.79
2023-10-22T02:09:46.820Z,12.24
2023-10-22T02:11:15.496Z,11.52
2023-10-22T02:12:36.997Z,7.83
2023-10-22T02:14:04.942Z,11.67
2023-10-22T02:15:26.335Z,13.01
2023-10-22T02:17:00.354Z,12.42
2023-10-22T02:18:21.654Z,10.31
2023-10-22T02:19:43.335Z,12.81
2023-10-22T02:21:11.850Z,12.32
2023-10-22T02:22:33.038Z,11.82
2023-10-22T02:23:54.533Z,12.26
2023-10-22T02:25:22.039Z,10.61
2023-10-22T02:26:43.407Z,11.01
2023-10-22T02:28:04.704Z,11.55
2023-10-22T02:29:26.034Z,9.74
2023-10-22T02:30:54.356Z,10.13
2023-10-22T02:32:30.228Z,13.11
2023-10-22T02:34:05.767Z,10.61
2023-10-22T02:35:34.228Z,10.29
2023-10-22T02:36:55.348Z,13.33
2023-10-22T02:38:23.545Z,9.37
2023-10-22T02:39:44.426Z,11.37
2023-10-22T02:41:12.043Z,6.93
2023-10-22T02:42:33.540Z,11.79
2023-10-22T02:43:55.421Z,6.83
2023-10-22T02:45:17.066Z,8.37
2023-10-22T02:46:46.455Z,9.63
2023-10-22T02:48:14.734Z,8.37
2023-10-22T02:49:42.872Z,10.47
2023-10-22T02:51:04.233Z,9.76
2023-10-22T02:52:25.543Z,7.89
2023-10-22T02:55:22.375Z,6.82
2023-10-22T02:56:56.236Z,8.47
2023-10-22T02:58:24.262Z,9.11
2023-10-22T02:59:45.565Z,6.41
2023-10-22T03:01:15.404Z,9.14
2023-10-22T03:02:39.732Z,8.81
2023-10-22T03:04:07.637Z,10.76
2023-10-22T03:05:39.655Z,9.86
2023-10-22T03:07:00.872Z,7.65
2023-10-22T03:08:21.922Z,7.60
2023-10-22T03:09:42.999Z,10.14
2023-10-22T03:11:11.260Z,9.44
2023-10-22T03:12:32.801Z,9.93
2023-10-22T03:13:53.726Z,11.06
2023-10-22T03:15:14.934Z,9.69
2023-10-22T03:16:43.162Z,11.14
2023-10-22T03:18:04.688Z,8.49
2023-10-22T03:19:35.155Z,9.06
2023-10-22T03:22:29.782Z,9.68
2023-10-22T03:23:57.794Z,9.57
2023-10-22T03:25:20.601Z,12.28
2023-10-22T03:26:42.043Z,9.33
2023-10-22T03:28:03.344Z,8.83
2023-10-22T03:29:31.515Z,8.18
2023-10-22T03:30:52.837Z,6.90
2023-10-22T03:32:14.026Z,5.59
2023-10-22T03:33:35.666Z,8.06
2023-10-22T03:35:09.693Z,11.45
2023-10-22T03:36:37.219Z,11.23
2023-10-22T03:37:58.702Z,11.53
2023-10-22T03:39:20.178Z,13.50
2023-10-22T03:40:41.543Z,14.78
2023-10-22T03:42:10.169Z,28.07
2023-10-22T03:43:31.589Z,16.39
2023-10-22T03:44:52.772Z,11.79
2023-10-22T03:46:21.110Z,19.25
2023-10-22T03:47:42.289Z,13.67
2023-10-22T03:49:03.675Z,10.34
2023-10-22T03:50:31.968Z,11.72
2023-10-22T03:51:59.975Z,9.07
2023-10-22T03:53:21.487Z,7.38
2023-10-22T03:54:49.432Z,7.53
2023-10-22T03:56:23.866Z,6.39
2023-10-22T03:57:51.806Z,10.17
2023-10-22T03:59:19.744Z,7.49
2023-10-22T04:00:41.096Z,7.61
2023-10-22T04:02:02.827Z,8.49
2023-10-22T04:03:30.572Z,9.23
2023-10-22T04:04:51.900Z,10.38
2023-10-22T04:06:19.717Z,12.83
2023-10-22T04:07:40.734Z,6.83
2023-10-22T04:09:08.457Z,6.86
2023-10-22T04:10:29.521Z,7.48
2023-10-22T04:11:50.999Z,5.14
2023-10-22T04:13:12.253Z,8.39
2023-10-22T04:14:41.479Z,10.81
2023-10-22T04:16:03.181Z,7.38
2023-10-22T04:17:24.469Z,8.28
2023-10-22T04:18:45.699Z,7.22
2023-10-22T04:20:15.338Z,8.32
2023-10-22T04:21:43.839Z,6.61
2023-10-22T04:23:05.397Z,6.82
2023-10-22T04:24:27.568Z,11.14
2023-10-22T04:25:55.224Z,9.25
2023-10-22T04:27:16.372Z,9.19
2023-10-22T04:28:44.575Z,8.57
2023-10-22T04:30:07.777Z,8.91
2023-10-22T04:31:28.951Z,8.19
2023-10-22T04:32:50.458Z,11.03
2023-10-22T04:34:18.565Z,7.99
2023-10-22T04:35:39.648Z,10.29
2023-10-22T04:37:07.728Z,11.31
2023-10-22T04:38:37.496Z,11.74
2023-10-22T04:40:06.039Z,11.16
2023-10-22T04:41:27.278Z,10.01
2023-10-22T04:42:48.691Z,10.11
2023-10-22T04:44:11.195Z,10.71
2023-10-22T04:45:39.279Z,9.29
2023-10-22T04:47:00.789Z,8.49
2023-10-22T04:48:22.358Z,8.14
2023-10-22T04:49:45.493Z,7.78
2023-10-22T04:52:40.423Z,8.66
2023-10-22T04:54:01.843Z,9.86
2023-10-22T04:55:36.265Z,10.84
2023-10-22T04:57:10.133Z,12.72
2023-10-22T04:58:31.627Z,19.38
2023-10-22T04:59:58.987Z,14.00
2023-10-22T05:01:20.668Z,9.82
2023-10-22T05:02:48.275Z,9.83
2023-10-22T05:04:09.425Z,10.61
2023-10-22T05:05:37.821Z,14.46
2023-10-22T05:06:59.300Z,9.04
2023-10-22T05:08:27.329Z,14.18
2023-10-22T05:09:48.608Z,26.01
2023-10-22T05:11:20.324Z,13.31
2023-10-22T05:12:41.400Z,15.24
2023-10-22T05:14:02.925Z,10.34
2023-10-22T05:15:30.682Z,11.19
2023-10-22T05:16:55.069Z,11.33
2023-10-22T05:18:16.502Z,12.99
2023-10-22T05:19:44.016Z,11.87
2023-10-22T05:21:12.762Z,22.25
2023-10-22T05:22:34.182Z,17.68
2023-10-22T05:24:01.993Z,15.48
2023-10-22T05:25:29.967Z,16.56
2023-10-22T05:26:51.495Z,15.19
2023-10-22T05:28:12.550Z,13.12
2023-10-22T05:29:42.458Z,8.95
2023-10-22T05:31:19.063Z,15.75
2023-10-22T05:32:40.463Z,11.50
2023-10-22T05:34:01.772Z,14.72
2023-10-22T05:35:24.966Z,22.79
2023-10-22T05:36:52.601Z,20.18
2023-10-22T05:38:20.395Z,25.60
2023-10-22T05:39:47.806Z,45.33
2023-10-22T05:41:14.057Z,44.69
2023-10-22T05:42:35.154Z,40.21
2023-10-22T05:44:04.284Z,47.42
2023-10-22T05:45:25.988Z,31.89
2023-10-22T05:46:47.585Z,14.33
2023-10-22T05:48:08.926Z,11.34
2023-10-22T05:49:37.082Z,12.93
2023-10-22T05:51:00.648Z,10.79
2023-10-22T05:52:22.022Z,10.63
2023-10-22T05:53:44.052Z,11.96
2023-10-22T05:55:19.845Z,9.90
2023-10-22T05:56:47.964Z,11.27
2023-10-22T05:58:15.615Z,13.82
2023-10-22T05:59:37.176Z,13.38
2023-10-22T06:01:11.968Z,15.56
2023-10-22T06:02:33.506Z,12.36
2023-10-22T06:03:54.835Z,9.03
2023-10-22T06:05:24.075Z,11.24
2023-10-22T06:06:47.086Z,7.91
2023-10-22T06:08:08.389Z,9.39
2023-10-22T06:09:37.455Z,9.82
2023-10-22T06:11:07.202Z,12.38
2023-10-22T06:12:28.196Z,7.76
2023-10-22T06:13:49.696Z,8.63
2023-10-22T06:15:17.204Z,10.49
2023-10-22T06:16:38.467Z,7.88
2023-10-22T06:18:00.167Z,9.12
2023-10-22T06:19:21.749Z,10.52
2023-10-22T06:20:50.217Z,10.46
2023-10-22T06:22:12.384Z,12.30
2023-10-22T06:23:33.484Z,12.26
2023-10-22T06:24:55.145Z,10.90
2023-10-22T06:26:29.838Z,12.99
2023-10-22T06:27:58.571Z,15.82
2023-10-22T06:29:20.078Z,14.18
2023-10-22T06:30:41.411Z,11.00
2023-10-22T06:32:02.880Z,9.75
2023-10-22T06:33:33.263Z,10.72
2023-10-22T06:35:00.818Z,11.21
2023-10-22T06:36:22.768Z,10.48
2023-10-22T06:37:45.151Z,9.58
2023-10-22T06:39:13.106Z,11.82
2023-10-22T06:40:35.637Z,11.31
2023-10-22T06:42:03.944Z,10.54
2023-10-22T06:43:25.307Z,8.61
2023-10-22T06:44:53.034Z,10.74
2023-10-22T06:46:15.015Z,12.61
2023-10-22T06:47:43.610Z,9.21
2023-10-22T06:49:05.010Z,13.75
2023-10-22T06:50:26.422Z,16.05
2023-10-22T06:51:54.986Z,10.19
2023-10-22T06:53:23.678Z,16.89
2023-10-22T06:54:45.066Z,15.27
2023-10-22T06:56:19.332Z,11.87
2023-10-22T06:57:48.795Z,13.93
2023-10-22T06:59:10.063Z,13.94
2023-10-22T07:00:32.469Z,16.73
2023-10-22T07:02:07.358Z,13.98
2023-10-22T07:03:30.181Z,12.78
2023-10-22T07:05:01.800Z,20.62
2023-10-22T07:06:23.330Z,19.02
2023-10-22T07:07:44.375Z,16.82
2023-10-22T07:09:12.931Z,15.15
2023-10-22T07:10:34.489Z,16.59
2023-10-22T07:11:55.522Z,15.09
2023-10-22T07:13:30.902Z,12.92
2023-10-22T07:14:52.098Z,11.72
2023-10-22T07:16:20.571Z,11.39
2023-10-22T07:17:48.165Z,12.10
2023-10-22T07:19:15.704Z,8.51
2023-10-22T07:20:37.315Z,10.81
2023-10-22T07:22:05.238Z,14.04
2023-10-22T07:23:26.447Z,15.83
2023-10-22T07:24:50.349Z,11.96
2023-10-22T07:26:12.178Z,13.18
2023-10-22T07:27:40.190Z,11.34
2023-10-22T07:29:08.795Z,13.82
2023-10-22T07:30:30.473Z,10.22
2023-10-22T07:31:52.122Z,15.29
2023-10-22T07:33:19.362Z,15.61
2023-10-22T07:34:40.688Z,19.58
2023-10-22T07:36:08.704Z,18.95
2023-10-22T07:37:30.016Z,13.46
2023-10-22T07:38:53.705Z,14.44
2023-10-22T07:40:15.175Z,11.61
2023-10-22T07:41:43.918Z,16.32
2023-10-22T07:43:05.222Z,12.94
2023-10-22T07:44:32.858Z,11.89
2023-10-22T07:45:59.511Z,14.08
2023-10-22T07:47:26.975Z,17.42
2023-10-22T07:48:48.494Z,12.54
2023-10-22T07:50:10.741Z,17.53
2023-10-22T07:51:32.302Z,15.64
2023-10-22T07:53:00.030Z,13.44
2023-10-22T07:54:21.427Z,11.60
2023-10-22T07:55:42.822Z,12.87
2023-10-22T07:57:11.787Z,11.45
2023-10-22T07:58:40.108Z,13.79
2023-10-22T08:00:10.865Z,16.72
2023-10-22T08:03:05.811Z,12.31
2023-10-22T08:04:27.004Z,14.44
2023-10-22T08:05:48.252Z,12.37
2023-10-22T08:07:09.566Z,11.79
2023-10-22T08:08:37.409Z,12.49
2023-10-22T08:09:58.495Z,25.29
2023-10-22T08:11:19.882Z,14.02
2023-10-22T08:12:47.660Z,12.75
2023-10-22T08:14:09.037Z,20.06
2023-10-22T08:15:36.771Z,40.42
2023-10-22T08:16:58.137Z,35.08
2023-10-22T08:18:26.695Z,26.14
2023-10-22T08:19:48.018Z,16.26
2023-10-22T08:21:09.600Z,20.99
2023-10-22T08:22:31.003Z,24.84
2023-10-22T08:23:59.033Z,15.80
2023-10-22T08:25:20.435Z,14.31
2023-10-22T08:26:42.914Z,17.33
2023-10-22T08:28:04.485Z,14.16
2023-10-22T08:29:32.022Z,14.56
2023-10-22T08:30:59.746Z,21.43
2023-10-22T08:32:21.116Z,25.74
2023-10-22T08:33:42.499Z,21.85
2023-10-22T08:35:11.348Z,19.74
2023-10-22T08:36:32.397Z,15.19
2023-10-22T08:37:53.490Z,17.45
2023-10-22T08:39:16.857Z,16.04
2023-10-22T08:40:46.109Z,13.19
2023-10-22T08:42:14.878Z,10.63
2023-10-22T08:43:37.936Z,11.75
2023-10-22T08:44:59.308Z,13.07
2023-10-22T08:46:27.609Z,10.20
2023-10-22T08:47:55.651Z,12.49
2023-10-22T08:49:19.037Z,12.19
2023-10-22T08:52:03.280Z,23.54
2023-10-22T08:53:31.213Z,17.03
2023-10-22T08:54:53.037Z,13.69
2023-10-22T08:56:15.309Z,15.04
2023-10-22T08:57:43.637Z,17.23
2023-10-22T08:59:18.088Z,10.99
2023-10-22T09:00:39.777Z,12.50
2023-10-22T09:02:12.194Z,12.67
2023-10-22T09:03:40.701Z,10.05
2023-10-22T09:05:08.717Z,14.15
2023-10-22T09:06:30.264Z,10.98
2023-10-22T09:07:55.031Z,8.22
2023-10-22T09:11:02.222Z,12.19
2023-10-22T09:12:29.739Z,11.63
2023-10-22T09:13:52.053Z,10.87
2023-10-22T09:15:13.381Z,11.67
2023-10-22T09:16:41.484Z,13.40
2023-10-22T09:18:09.902Z,18.27
2023-10-22T09:19:37.875Z,14.90
2023-10-22T09:21:06.917Z,13.74
2023-10-22T09:22:35.853Z,11.54
2023-10-22T09:24:03.757Z,11.16
2023-10-22T09:25:28.974Z,10.21
2023-10-22T09:26:50.382Z,15.84
2023-10-22T09:28:21.953Z,12.27
2023-10-22T09:29:49.074Z,19.18
2023-10-22T09:31:10.562Z,15.59
2023-10-22T09:32:32.001Z,14.94
2023-10-22T09:34:06.200Z,11.36
2023-10-22T09:35:27.262Z,12.52
2023-10-22T09:36:55.479Z,12.91
2023-10-22T09:38:16.751Z,14.49
2023-10-22T09:39:46.121Z,16.62
2023-10-22T09:41:07.725Z,17.72
2023-10-22T09:42:28.787Z,17.67
2023-10-22T09:43:50.624Z,13.38
2023-10-22T09:45:20.248Z,13.69
2023-10-22T09:46:47.824Z,11.32
2023-10-22T09:48:12.340Z,10.14
2023-10-22T09:49:40.104Z,15.36
2023-10-22T09:51:03.963Z,11.18
2023-10-22T09:52:31.461Z,10.00
2023-10-22T09:53:54.042Z,12.41
2023-10-22T09:55:16.365Z,9.42
2023-10-22T09:56:58.457Z,9.77
2023-10-22T09:58:19.637Z,10.43
2023-10-22T09:59:41.462Z,12.93
2023-10-22T10:01:02.961Z,8.61
2023-10-22T10:02:31.376Z,12.36
2023-10-22T10:03:52.923Z,9.95
2023-10-22T10:05:27.857Z,18.34
2023-10-22T10:06:50.357Z,16.46
2023-10-22T10:08:18.046Z,26.36
2023-10-22T10:09:39.294Z,35.72
2023-10-22T10:11:01.958Z,12.77
2023-10-22T10:12:36.461Z,25.31
2023-10-22T10:14:04.718Z,11.81
2023-10-22T10:15:32.824Z,10.07
2023-10-22T10:16:59.541Z,9.88
2023-10-22T10:18:20.646Z,13.35
2023-10-22T10:19:49.211Z,32.78
2023-10-22T10:21:38.373Z,11.94
2023-10-22T10:23:12.883Z,9.26
2023-10-22T10:24:34.306Z,11.76
2023-10-22T10:26:02.393Z,11.64
2023-10-22T10:27:23.998Z,13.89
2023-10-22T10:28:46.723Z,17.00
2023-10-22T10:30:21.792Z,8.81
2023-10-22T10:31:43.606Z,18.33
2023-10-22T10:33:16.005Z,9.39
2023-10-22T10:34:32.810Z,9.63
2023-10-22T10:36:00.597Z,7.36
2023-10-22T10:37:28.205Z,10.00
2023-10-22T10:38:49.564Z,9.19
2023-10-22T10:41:57.649Z,7.90
2023-10-22T10:43:18.789Z,9.24
2023-10-22T10:44:59.100Z,9.91
2023-10-22T10:46:29.670Z,8.78
2023-10-22T10:47:57.688Z,12.73
2023-10-22T10:49:39.148Z,12.66
2023-10-22T10:51:20.425Z,12.30
2023-10-22T10:52:58.760Z,6.34
2023-10-22T10:54:20.698Z,8.69
2023-10-22T10:55:43.993Z,8.15
2023-10-22T10:57:12.150Z,10.58
2023-10-22T10:58:33.268Z,6.96
2023-10-22T11:00:02.121Z,10.39
2023-10-22T11:01:23.335Z,9.52
2023-10-22T11:02:44.764Z,7.28
2023-10-22T11:04:13.381Z,8.28
2023-10-22T11:05:36.190Z,10.52
2023-10-22T11:08:40.963Z,7.70
2023-10-22T11:10:09.460Z,10.63
2023-10-22T11:11:37.788Z,7.51
2023-10-22T11:13:13.612Z,6.51
2023-10-22T11:14:42.305Z,9.99
2023-10-22T11:16:11.327Z,7.72
2023-10-22T11:17:32.509Z,8.66
2023-10-22T11:18:53.758Z,5.10
2023-10-22T11:20:16.058Z,7.21
2023-10-22T11:21:43.809Z,8.94
2023-10-22T11:23:23.696Z,7.42
2023-10-22T11:24:52.201Z,8.65
2023-10-22T11:26:13.800Z,7.95
2023-10-22T11:27:38.174Z,6.79
2023-10-22T11:29:06.290Z,6.74
2023-10-22T11:30:38.254Z,7.97
2023-10-22T11:31:59.568Z,8.84
2023-10-22T11:33:34.461Z,6.62
2023-10-22T11:35:04.336Z,7.88
2023-10-22T11:36:26.675Z,6.84
2023-10-22T11:37:47.957Z,5.66
2023-10-22T11:39:40.750Z,6.09
2023-10-22T11:40:54.668Z,6.42
2023-10-22T11:42:15.736Z,7.28
2023-10-22T11:43:48.195Z,12.02
2023-10-22T11:45:10.774Z,5.91
2023-10-22T11:46:41.521Z,10.72
2023-10-22T11:48:18.585Z,8.78
2023-10-22T11:49:54.513Z,9.18
2023-10-22T11:51:22.312Z,6.60
2023-10-22T11:52:58.872Z,5.69
2023-10-22T11:54:20.583Z,6.63
2023-10-22T11:55:41.673Z,6.21
2023-10-22T11:57:15.912Z,5.57
2023-10-22T11:58:37.280Z,5.95
2023-10-22T11:59:58.818Z,5.78
2023-10-22T12:01:19.946Z,7.27
2023-10-22T12:02:47.623Z,5.56
2023-10-22T12:04:08.864Z,6.24
2023-10-22T12:05:31.302Z,5.20
2023-10-22T12:06:52.568Z,6.83
2023-10-22T12:08:27.517Z,9.60
2023-10-22T12:09:48.904Z,4.87
2023-10-22T12:11:10.331Z,6.06
2023-10-22T12:12:46.170Z,6.31
2023-10-22T12:14:13.646Z,5.01
2023-10-22T12:15:34.873Z,4.97
2023-10-22T12:16:56.251Z,3.66
2023-10-22T12:18:17.515Z,9.52
2023-10-22T12:19:45.487Z,7.70
2023-10-22T12:21:07.302Z,6.89
2023-10-22T12:22:31.096Z,7.97
2023-10-22T12:23:53.917Z,4.59
2023-10-22T12:25:21.701Z,4.83
2023-10-22T12:26:42.836Z,4.97
2023-10-22T12:28:11.716Z,4.69
2023-10-22T12:29:33.524Z,7.13
2023-10-22T12:31:01.503Z,5.48
2023-10-22T12:32:23.127Z,4.75
2023-10-22T12:33:44.821Z,6.14
2023-10-22T12:35:08.174Z,3.02
2023-10-22T12:36:36.511Z,6.34
2023-10-22T12:38:06.211Z,4.39
2023-10-22T12:39:27.617Z,4.69
2023-10-22T12:40:49.245Z,5.72
2023-10-22T12:42:19.443Z,4.29
2023-10-22T12:43:48.828Z,5.26
2023-10-22T12:45:13.145Z,4.97
2023-10-22T12:46:41.855Z,6.62
2023-10-22T12:48:10.668Z,3.01
2023-10-22T12:49:31.795Z,4.71
2023-10-22T12:50:53.311Z,5.33
2023-10-22T12:52:14.853Z,6.18
2023-10-22T12:53:43.285Z,3.37
2023-10-22T12:55:06.799Z,4.96
2023-10-22T12:56:28.391Z,2.82
2023-10-22T12:57:49.721Z,2.10
2023-10-22T12:59:24.139Z,6.08
2023-10-22T13:00:45.286Z,4.31
2023-10-22T13:02:06.510Z,6.37
2023-10-22T13:03:34.541Z,3.88
2023-10-22T13:04:56.198Z,7.24
2023-10-22T13:06:17.840Z,3.91
2023-10-22T13:07:40.353Z,1.78
2023-10-22T13:09:14.492Z,3.60
2023-10-22T13:12:08.658Z,3.35
2023-10-22T13:13:36.025Z,3.23
2023-10-22T13:15:11.448Z,3.77
2023-10-22T13:16:32.703Z,3.23
2023-10-22T13:17:53.940Z,4.67
2023-10-22T13:19:21.801Z,5.08
2023-10-22T13:20:42.972Z,2.98
2023-10-22T13:22:11.197Z,4.46
2023-10-22T13:23:32.565Z,1.60
2023-10-22T13:24:53.981Z,3.17
2023-10-22T13:26:15.421Z,3.61
2023-10-22T13:27:43.444Z,2.54
2023-10-22T13:29:04.797Z,1.91
2023-10-22T13:30:32.751Z,1.91
2023-10-22T13:31:55.767Z,1.43
2023-10-22T13:33:23.493Z,2.92
2023-10-22T13:34:45.119Z,3.56
2023-10-22T13:36:07.154Z,1.86
2023-10-22T13:37:28.253Z,1.94
2023-10-22T13:38:56.122Z,3.44
2023-10-22T13:40:19.127Z,1.58
2023-10-22T13:41:42.690Z,2.76
2023-10-22T13:43:10.037Z,2.94
2023-10-22T13:44:33.419Z,3.26
2023-10-22T13:46:02.656Z,2.61
2023-10-22T13:47:24.393Z,1.53
2023-10-22T13:48:53.848Z,3.03
2023-10-22T13:50:15.910Z,1.76
2023-10-22T13:51:38.081Z,1.51
2023-10-22T13:53:06.017Z,1.68
2023-10-22T13:54:27.513Z,2.96
2023-10-22T13:57:28.469Z,2.94
2023-10-22T13:59:04.322Z,2.54
2023-10-22T14:00:25.827Z,2.59
2023-10-22T14:02:15.027Z,2.56
2023-10-22T14:03:36.497Z,2.82
2023-10-22T14:05:06.568Z,1.62
2023-10-22T14:06:27.775Z,1.20
2023-10-22T14:07:51.303Z,3.01
2023-10-22T14:09:13.060Z,1.06
2023-10-22T14:10:47.381Z,1.06
2023-10-22T14:12:08.805Z,2.45
2023-10-22T14:13:31.089Z,3.82
2023-10-22T14:14:52.274Z,2.44
2023-10-22T14:16:21.016Z,2.39
2023-10-22T14:17:55.839Z,1.36
2023-10-22T14:19:16.952Z,2.47
2023-10-22T14:20:38.430Z,2.25
2023-10-22T14:22:07.931Z,1.74
2023-10-22T14:23:30.289Z,2.62
2023-10-22T14:24:54.864Z,2.15
2023-10-22T14:26:17.821Z,1.82
2023-10-22T14:27:45.471Z,2.72
2023-10-22T14:29:06.700Z,2.01
2023-10-22T14:30:28.198Z,1.26
2023-10-22T14:31:49.328Z,1.73
2023-10-22T14:33:23.611Z,3.56
2023-10-22T14:34:45.216Z,1.46
2023-10-22T14:36:07.131Z,4.18
2023-10-22T14:37:28.790Z,2.82
2023-10-22T14:38:56.628Z,2.44
2023-10-22T14:40:19.276Z,2.57
2023-10-22T14:41:40.722Z,5.08
2023-10-22T14:43:02.036Z,3.02
2023-10-22T14:44:29.535Z,4.20
2023-10-22T14:45:57.397Z,2.71
2023-10-22T14:47:19.746Z,3.90
2023-10-22T14:48:47.782Z,2.93
2023-10-22T14:50:10.025Z,2.83
2023-10-22T14:51:38.527Z,3.89
2023-10-22T14:53:00.706Z,1.72
2023-10-22T14:54:28.772Z,3.01
2023-10-22T14:57:34.320Z,2.88
2023-10-22T15:00:26.232Z,2.81
2023-10-22T15:01:48.045Z,2.29
2023-10-22T15:03:17.749Z,2.29
2023-10-22T15:04:47.484Z,1.60
2023-10-22T15:06:09.279Z,3.41
2023-10-22T15:07:30.605Z,3.02
2023-10-22T15:08:58.522Z,1.72
2023-10-22T15:10:19.780Z,2.49
2023-10-22T15:11:47.250Z,2.44
2023-10-22T15:13:16.659Z,3.14
2023-10-22T15:14:37.749Z,4.60
2023-10-22T15:15:59.449Z,5.98
2023-10-22T15:17:27.817Z,7.25
2023-10-22T15:18:49.425Z,6.27
2023-10-22T15:20:18.669Z,4.94
2023-10-22T15:21:41.497Z,7.37
2023-10-22T15:23:09.643Z,7.06
2023-10-22T15:24:30.923Z,7.53
2023-10-22T15:25:52.316Z,4.32
2023-10-22T15:27:13.648Z,8.13
2023-10-22T15:28:42.360Z,7.88
2023-10-22T15:30:05.530Z,6.32
2023-10-22T15:31:26.938Z,7.17
2023-10-22T15:32:55.498Z,4.52
2023-10-22T15:34:23.372Z,5.34
2023-10-22T15:35:57.322Z,25.51
2023-10-22T15:37:21.325Z,27.39
2023-10-22T15:40:12.845Z,25.00
2023-10-22T15:41:34.302Z,24.39
2023-10-22T15:42:56.215Z,26.66
2023-10-22T15:44:25.371Z,59.13
2023-10-22T15:45:46.784Z,29.29
2023-10-22T15:47:08.142Z,15.36
2023-10-22T15:48:37.982Z,19.15
2023-10-22T15:50:00.180Z,5.25
2023-10-22T15:51:28.646Z,7.44
2023-10-22T15:52:56.563Z,16.15
2023-10-22T15:54:17.837Z,12.88
2023-10-22T15:55:39.917Z,4.59
2023-10-22T15:57:09.444Z,10.10
2023-10-22T15:58:43.477Z,9.57
2023-10-22T16:00:05.722Z,4.81
2023-10-22T16:01:26.818Z,4.49
2023-10-22T16:02:48.122Z,5.29
2023-10-22T16:04:16.094Z,4.87
2023-10-22T16:07:09.668Z,12.14
2023-10-22T16:08:37.210Z,3.92
2023-10-22T16:10:05.709Z,5.27
2023-10-22T16:11:27.264Z,6.03
2023-10-22T16:12:55.214Z,5.48
2023-10-22T16:14:22.874Z,4.27
2023-10-22T16:15:45.929Z,2.85
2023-10-22T16:18:28.149Z,3.46
2023-10-22T16:19:58.721Z,3.76
2023-10-22T16:21:26.496Z,2.49
2023-10-22T16:22:54.353Z,4.42
2023-10-22T16:24:21.749Z,4.09
2023-10-22T16:25:46.345Z,3.88
2023-10-22T16:27:14.695Z,2.88
2023-10-22T16:28:35.876Z,2.43
2023-10-22T16:29:57.506Z,2.55
2023-10-22T16:31:25.607Z,2.56
2023-10-22T16:32:46.806Z,3.88
2023-10-22T16:34:15.071Z,2.94
2023-10-22T16:35:37.343Z,3.03
2023-10-22T16:37:05.435Z,2.86
2023-10-22T16:38:26.811Z,3.42
2023-10-22T16:39:58.699Z,1.73
2023-10-22T16:41:19.859Z,4.51
2023-10-22T16:42:48.375Z,3.77
2023-10-22T16:44:18.121Z,4.06
2023-10-22T16:45:41.362Z,3.03
2023-10-22T16:47:03.045Z,2.37
2023-10-22T16:48:24.420Z,4.08
2023-10-22T16:49:52.756Z,4.13
2023-10-22T16:51:14.221Z,3.57
2023-10-22T16:52:35.604Z,2.64
2023-10-22T16:53:56.961Z,3.76
2023-10-22T16:55:31.439Z,3.93
2023-10-22T16:56:52.772Z,3.41
2023-10-22T16:58:13.783Z,2.57
2023-10-22T16:59:36.364Z,1.69
2023-10-22T17:01:11.937Z,1.76
2023-10-22T17:02:39.683Z,2.47
2023-10-22T17:04:07.289Z,1.91
2023-10-22T17:05:28.373Z,1.12
2023-10-22T17:06:56.283Z,2.58
2023-10-22T17:08:25.158Z,2.68
2023-10-22T17:09:46.390Z,2.28
2023-10-22T17:11:13.950Z,1.83
2023-10-22T17:12:42.262Z,4.89
2023-10-22T17:14:12.552Z,2.26
2023-10-22T17:15:33.761Z,2.91
2023-10-22T17:16:55.312Z,2.82
2023-10-22T17:18:24.046Z,2.01
2023-10-22T17:19:45.398Z,2.30
2023-10-22T17:21:07.140Z,2.53
2023-10-22T17:22:28.378Z,0.96
2023-10-22T17:23:56.889Z,2.62
2023-10-22T17:25:24.749Z,2.34
2023-10-22T17:26:52.197Z,1.21
2023-10-22T17:28:13.384Z,3.88
2023-10-22T17:29:41.822Z,2.76
2023-10-22T17:31:02.917Z,3.14
2023-10-22T17:32:31.164Z,3.19
2023-10-22T17:34:05.103Z,3.13
2023-10-22T17:36:36.988Z,0.83
2023-10-22T17:38:04.838Z,1.22
2023-10-22T17:39:26.243Z,1.48
2023-10-22T17:40:54.400Z,1.02
2023-10-22T17:42:22.993Z,1.89
2023-10-22T17:43:50.778Z,1.85
2023-10-22T17:45:12.280Z,2.28
2023-10-22T17:46:33.736Z,7.81
2023-10-22T17:47:54.943Z,2.11
2023-10-22T17:49:23.736Z,2.34
2023-10-22T17:50:45.460Z,2.22
2023-10-22T17:52:07.689Z,2.51
2023-10-22T17:53:35.857Z,3.89
2023-10-22T17:54:57.168Z,3.23
2023-10-22T17:56:18.717Z,1.70
2023-10-22T17:57:46.915Z,1.31
2023-10-22T17:59:16.065Z,3.67
2023-10-22T18:00:37.416Z,2.58
2023-10-22T18:01:59.152Z,4.13
2023-10-22T18:03:20.586Z,1.87
2023-10-22T18:04:48.330Z,1.79
2023-10-22T18:06:09.994Z,1.72
2023-10-22T18:07:37.986Z,2.27
2023-10-22T18:09:12.444Z,3.84
2023-10-22T18:10:36.383Z,3.72
2023-10-22T18:11:57.817Z,2.93
2023-10-22T18:13:27.174Z,1.12
2023-10-22T18:15:02.263Z,1.88
2023-10-22T18:16:23.548Z,2.97
2023-10-22T18:17:44.719Z,2.83
2023-10-22T18:19:16.213Z,1.92
2023-10-22T18:20:35.846Z,1.42
2023-10-22T18:21:56.973Z,3.76
2023-10-22T18:23:18.341Z,2.01
2023-10-22T18:24:46.369Z,2.33
2023-10-22T18:26:08.417Z,2.27
2023-10-22T18:27:29.667Z,2.61
2023-10-22T18:28:58.601Z,1.99
2023-10-22T18:30:26.238Z,2.09
2023-10-22T18:31:47.429Z,2.84
2023-10-22T18:33:09.043Z,2.04
2023-10-22T18:34:30.312Z,3.22
2023-10-22T18:35:58.203Z,1.99
2023-10-22T18:37:19.442Z,1.67
2023-10-22T18:38:40.852Z,1.85
2023-10-22T18:40:03.941Z,2.03
2023-10-22T18:41:32.020Z,1.44
2023-10-22T18:42:53.454Z,1.21
2023-10-22T18:44:21.312Z,3.00
2023-10-22T18:45:44.105Z,2.56
2023-10-22T18:47:12.935Z,1.32
2023-10-22T18:48:35.490Z,3.60
2023-10-22T18:49:57.086Z,3.08
2023-10-22T18:51:18.875Z,2.28
2023-10-22T18:52:47.061Z,1.71
2023-10-22T18:54:08.432Z,3.01
2023-10-22T18:55:30.490Z,2.25
2023-10-22T18:56:58.494Z,1.58
2023-10-22T18:58:20.160Z,3.45
2023-10-22T18:59:48.059Z,2.43
2023-10-22T19:01:13.333Z,3.13
2023-10-22T19:02:42.731Z,3.30